Time;durP1;ratioP1;P1;durP2;ratioP2;P2;SDS_P1;SDS_P2;PMS_P1;PMS_P2;Temp;Humidity;BMP_temperature;BMP_pressure;BME280_temperature;BME280_humidity;BME280_pressure;Samples;Min_cycle;Max_cycle;Signal;HPM_P1;HPM_P2
2023/01/19 00:02:24;;;;;;;0.10;0.10;;;-0.60;99.90;;;;;;5062290;28;21067;-81
2023/01/19 00:04:49;;;;;;;0.10;0.10;;;-0.60;99.90;;;;;;5061069;28;21965;-81
2023/01/19 00:07:15;;;;;;;0.10;0.10;;;-0.60;99.90;;;;;;5062015;28;20213;-81
2023/01/19 00:09:41;;;;;;;0.10;0.10;;;-0.60;99.90;;;;;;5061668;28;20722;-80
2023/01/19 00:12:06;;;;;;;0.10;0.10;;;-0.70;99.90;;;;;;5059774;28;20720;-80
2023/01/19 00:14:33;;;;;;;0.10;0.10;;;-0.70;99.90;;;;;;5059101;28;20212;-81
2023/01/19 00:17:00;;;;;;;0.10;0.10;;;-0.80;99.90;;;;;;5060923;28;20703;-81
2023/01/19 00:19:26;;;;;;;0.10;0.10;;;-0.80;99.90;;;;;;5060694;28;20254;-81
2023/01/19 00:21:51;;;;;;;0.10;0.10;;;-0.90;99.90;;;;;;5057996;28;20654;-80
2023/01/19 00:24:17;;;;;;;0.10;0.10;;;-1.10;99.90;;;;;;5062114;28;20213;-80
2023/01/19 00:26:42;;;;;;;0.00;0.00;;;-1.10;99.90;;;;;;5060853;28;20739;-80
2023/01/19 00:29:12;;;;;;;0.10;0.10;;;-1.00;99.90;;;;;;5059985;28;20204;-81
2023/01/19 00:31:38;;;;;;;0.10;0.10;;;-1.00;99.90;;;;;;5063092;28;20185;-79
2023/01/19 00:34:05;;;;;;;0.10;0.10;;;-0.90;99.90;;;;;;5062331;28;20212;-81
2023/01/19 00:36:31;;;;;;;0.10;0.10;;;-0.90;99.90;;;;;;5061692;28;20222;-81
2023/01/19 00:38:57;;;;;;;0.10;0.10;;;-0.90;99.90;;;;;;5062495;28;20193;-80
2023/01/19 00:42:38;;;;;;;0.10;0.10;;;-0.80;99.90;;;;;;5060875;28;20196;-80
2023/01/19 00:44:09;;;;;;;0.10;0.10;;;-0.80;99.90;;;;;;5061633;28;20196;-80
2023/01/19 00:46:35;;;;;;;0.10;0.10;;;-0.80;99.90;;;;;;5070190;28;20212;-79
2023/01/19 00:49:00;;;;;;;0.10;0.10;;;-0.90;99.90;;;;;;5063370;28;20710;-80
2023/01/19 00:51:26;;;;;;;0.10;0.10;;;-0.90;99.90;;;;;;5061247;28;20255;-81
2023/01/19 00:53:51;;;;;;;0.10;0.10;;;-0.90;99.90;;;;;;5061933;28;20177;-80
2023/01/19 00:56:17;;;;;;;0.10;0.10;;;-0.90;99.90;;;;;;5061195;28;20192;-79
2023/01/19 00:58:44;;;;;;;0.10;0.10;;;-0.90;99.90;;;;;;5059720;28;20442;-81
2023/01/19 01:01:10;;;;;;;0.00;0.00;;;-1.10;99.90;;;;;;5057793;28;20181;-80
2023/01/19 01:03:36;;;;;;;0.10;0.10;;;-1.40;99.90;;;;;;5058106;28;20197;-80
2023/01/19 01:06:02;;;;;;;0.10;0.10;;;-1.40;99.90;;;;;;5054841;28;20189;-80
2023/01/19 01:08:28;;;;;;;0.10;0.10;;;-1.60;99.90;;;;;;5059470;28;20700;-80
2023/01/19 01:10:55;;;;;;;0.10;0.10;;;-1.50;99.90;;;;;;5060018;28;20178;-80
2023/01/19 01:13:20;;;;;;;0.10;0.10;;;-1.50;99.90;;;;;;5057575;28;20197;-80
2023/01/19 01:15:49;;;;;;;0.00;0.00;;;-1.50;99.90;;;;;;5058184;28;20185;-81
2023/01/19 01:18:15;;;;;;;0.10;0.10;;;-1.50;99.90;;;;;;5057445;28;20209;-81
2023/01/19 01:20:40;;;;;;;0.00;0.00;;;-1.60;99.90;;;;;;5057289;28;20189;-80
2023/01/19 01:23:07;;;;;;;0.10;0.10;;;-1.70;99.90;;;;;;5058005;28;20191;-81
2023/01/19 01:25:36;;;;;;;0.03;0.03;;;-1.80;99.90;;;;;;5060229;28;20272;-80
2023/01/19 01:28:03;;;;;;;0.10;0.10;;;-1.80;99.90;;;;;;5059390;28;20219;-79
2023/01/19 01:30:29;;;;;;;1.53;1.43;;;-1.90;99.90;;;;;;5059331;28;20199;-79
2023/01/19 01:32:55;;;;;;;0.07;0.07;;;-2.10;99.90;;;;;;5063574;28;20185;-80
2023/01/19 01:35:20;;;;;;;0.10;0.10;;;-2.20;99.90;;;;;;5061027;28;20199;-81
2023/01/19 01:37:46;;;;;;;0.10;0.10;;;-2.20;99.90;;;;;;5059547;28;20196;-80
2023/01/19 01:40:16;;;;;;;0.10;0.10;;;-2.30;99.90;;;;;;5060622;28;20189;-79
2023/01/19 01:42:42;;;;;;;0.10;0.10;;;-2.20;99.90;;;;;;5060361;28;20188;-79
2023/01/19 01:45:29;;;;;;;0.10;0.10;;;-2.00;99.90;;;;;;5059789;28;20533;-80
2023/01/19 01:48:08;;;;;;;0.10;0.10;;;-1.90;99.90;;;;;;5062360;28;20207;-79
2023/01/19 01:53:44;;;;;;;0.07;0.07;;;-1.70;99.90;;;;;;5061823;28;20223;-80
2023/01/19 01:56:15;;;;;;;0.10;0.10;;;-1.50;99.90;;;;;;5061567;28;20185;-79
2023/01/19 01:58:41;;;;;;;0.10;0.10;;;-1.40;99.90;;;;;;5060506;28;20209;-80
2023/01/19 02:03:52;;;;;;;0.10;0.10;;;-1.10;99.90;;;;;;5059267;28;20562;-80
2023/01/19 02:06:18;;;;;;;0.10;0.10;;;-1.00;99.90;;;;;;5056537;28;20193;-80
2023/01/19 02:14:19;;;;;;;0.10;0.10;;;-0.50;99.90;;;;;;5063825;28;20196;-80
2023/01/19 02:16:45;;;;;;;0.10;0.10;;;-0.30;99.90;;;;;;5065660;28;20193;-80
2023/01/19 02:19:23;;;;;;;0.00;0.00;;;-0.30;99.90;;;;;;5062368;28;20190;-80
2023/01/19 02:21:53;;;;;;;0.00;0.00;;;-0.30;99.90;;;;;;5060656;28;20192;-79
2023/01/19 02:24:20;;;;;;;0.07;0.07;;;-0.60;99.90;;;;;;5063237;28;20192;-80
2023/01/19 02:26:47;;;;;;;0.07;0.07;;;-0.70;99.90;;;;;;5062236;28;20215;-81
2023/01/19 02:29:16;;;;;;;0.10;0.10;;;-0.50;99.90;;;;;;5072614;28;20217;-80
2023/01/19 02:31:42;;;;;;;0.10;0.10;;;-0.50;99.90;;;;;;5062433;28;20551;-81
2023/01/19 02:34:11;;;;;;;0.10;0.10;;;-0.50;99.90;;;;;;5062611;28;20181;-80
2023/01/19 02:36:43;;;;;;;0.10;0.10;;;-0.60;99.90;;;;;;5060913;28;20704;-80
2023/01/19 02:39:09;;;;;;;0.10;0.10;;;-0.70;99.90;;;;;;5062580;28;20188;-80
2023/01/19 02:41:45;;;;;;;0.10;0.10;;;-0.80;99.90;;;;;;5062701;28;20227;-79
2023/01/19 02:44:13;;;;;;;0.10;0.10;;;-0.80;99.90;;;;;;5060661;28;20308;-80
2023/01/19 02:46:39;;;;;;;0.10;0.10;;;-0.80;99.90;;;;;;5060770;28;20216;-80
2023/01/19 02:49:05;;;;;;;0.00;0.00;;;-0.80;99.90;;;;;;5062577;28;20205;-80
2023/01/19 02:51:31;;;;;;;0.10;0.10;;;-0.80;99.90;;;;;;5062105;28;20181;-80
2023/01/19 02:54:16;;;;;;;0.10;0.10;;;-1.00;99.90;;;;;;5062783;28;20642;-81
2023/01/19 02:56:50;;;;;;;0.10;0.10;;;-1.30;99.90;;;;;;5062172;28;20201;-80
2023/01/19 02:59:52;;;;;;;0.00;0.00;;;-1.50;99.90;;;;;;5061658;28;20204;-80
2023/01/19 03:02:20;;;;;;;0.10;0.10;;;-1.70;99.90;;;;;;5063507;28;20184;-81
2023/01/19 03:05:25;;;;;;;0.10;0.10;;;-1.40;99.90;;;;;;5060680;28;20216;-80
2023/01/19 03:08:28;;;;;;;0.10;0.10;;;-1.20;99.90;;;;;;5060221;28;20224;-81
2023/01/19 03:11:05;;;;;;;0.10;0.10;;;-1.10;99.90;;;;;;5061567;28;20192;-80
2023/01/19 03:13:40;;;;;;;0.03;0.03;;;-0.90;99.90;;;;;;5061673;28;20268;-80
2023/01/19 03:16:19;;;;;;;0.10;0.10;;;-0.80;99.90;;;;;;5062161;28;20208;-80
2023/01/19 03:18:50;;;;;;;0.10;0.10;;;-0.70;99.90;;;;;;5062468;28;20215;-81
2023/01/19 03:21:18;;;;;;;0.07;0.07;;;-0.60;99.90;;;;;;5061600;28;20197;-81
2023/01/19 03:23:45;;;;;;;0.10;0.10;;;-0.50;99.90;;;;;;5061125;28;20224;-81
2023/01/19 03:26:16;;;;;;;0.10;0.10;;;-0.50;99.90;;;;;;5061393;28;20189;-80
2023/01/19 03:28:44;;;;;;;0.10;0.10;;;-0.50;99.90;;;;;;5061570;28;20279;-80
2023/01/19 03:31:22;;;;;;;0.10;0.10;;;-0.70;99.90;;;;;;5060441;28;20177;-79
2023/01/19 03:33:52;;;;;;;0.10;0.10;;;-0.70;99.90;;;;;;5065880;28;20184;-80
2023/01/19 03:36:35;;;;;;;0.10;0.10;;;-0.60;99.90;;;;;;5069069;28;20213;-81
2023/01/19 03:39:04;;;;;;;0.10;0.10;;;-0.50;99.90;;;;;;5069697;28;20193;-79
2023/01/19 03:41:31;;;;;;;0.10;0.10;;;-0.60;99.90;;;;;;5063829;28;20185;-80
2023/01/19 03:43:57;;;;;;;0.10;0.10;;;-0.50;99.90;;;;;;5062767;28;20200;-79
2023/01/19 03:46:24;;;;;;;0.10;0.10;;;-0.40;99.90;;;;;;5061839;28;20970;-80
2023/01/19 03:48:51;;;;;;;0.00;0.00;;;-0.70;99.90;;;;;;5063188;28;20243;-80
2023/01/19 03:51:18;;;;;;;0.10;0.10;;;-0.80;99.90;;;;;;5064576;28;20196;-80
2023/01/19 03:53:44;;;;;;;0.10;0.10;;;-0.70;99.90;;;;;;5061631;28;20197;-80
2023/01/19 03:56:27;;;;;;;0.10;0.10;;;-0.80;99.90;;;;;;5062849;28;20190;-78
2023/01/19 03:58:53;;;;;;;0.10;0.10;;;-0.80;99.90;;;;;;5062005;28;20220;-79
2023/01/19 04:01:22;;;;;;;0.10;0.10;;;-0.80;99.90;;;;;;5063906;28;20247;-81
2023/01/19 04:03:51;;;;;;;0.10;0.10;;;-0.60;99.90;;;;;;5063045;28;20211;-80
2023/01/19 04:06:18;;;;;;;0.10;0.10;;;-0.40;99.90;;;;;;5060226;28;20189;-80
2023/01/19 04:08:44;;;;;;;0.10;0.10;;;-0.30;99.90;;;;;;5063120;28;20208;-78
2023/01/19 04:11:09;;;;;;;0.10;0.10;;;-0.30;99.90;;;;;;5061648;28;20191;-80
2023/01/19 04:13:35;;;;;;;0.00;0.00;;;-0.10;99.90;;;;;;5063850;28;20199;-79
2023/01/19 04:16:02;;;;;;;0.10;0.10;;;0.00;99.90;;;;;;5062425;28;20177;-80
2023/01/19 04:18:29;;;;;;;0.07;0.07;;;0.10;99.90;;;;;;5062659;28;20300;-80
2023/01/19 04:20:58;;;;;;;0.00;0.00;;;0.10;99.90;;;;;;5062022;28;20324;-80
2023/01/19 04:23:24;;;;;;;0.10;0.10;;;0.20;99.90;;;;;;5065368;28;20182;-80
2023/01/19 04:25:49;;;;;;;0.10;0.10;;;0.20;99.90;;;;;;5060882;28;20189;-80
2023/01/19 04:28:15;;;;;;;0.10;0.10;;;0.20;99.90;;;;;;5062944;28;20784;-80
2023/01/19 04:30:41;;;;;;;0.00;0.00;;;0.20;99.90;;;;;;5063196;28;20224;-80
2023/01/19 04:33:06;;;;;;;0.10;0.10;;;0.30;99.90;;;;;;5062657;28;20344;-82
2023/01/19 04:35:33;;;;;;;0.10;0.10;;;0.10;99.90;;;;;;5060759;28;20207;-80
2023/01/19 04:37:58;;;;;;;0.10;0.10;;;0.10;99.90;;;;;;5060573;28;20228;-79
2023/01/19 04:40:24;;;;;;;0.10;0.10;;;0.20;99.90;;;;;;5060061;28;20601;-81
2023/01/19 04:42:49;;;;;;;0.10;0.10;;;0.40;99.90;;;;;;5058858;28;20273;-80
2023/01/19 04:45:16;;;;;;;0.10;0.10;;;0.50;99.90;;;;;;5059866;28;20246;-79
2023/01/19 04:47:41;;;;;;;0.10;0.10;;;-0.10;99.90;;;;;;5057259;28;20201;-80
2023/01/19 04:50:08;;;;;;;0.10;0.10;;;-0.50;99.90;;;;;;5058159;28;21162;-81
2023/01/19 04:52:34;;;;;;;0.10;0.10;;;-0.50;99.90;;;;;;5059334;28;20185;-80
2023/01/19 04:55:04;;;;;;;0.00;0.00;;;-0.50;99.90;;;;;;5059249;28;20186;-80
2023/01/19 04:57:29;;;;;;;0.10;0.10;;;-0.50;99.90;;;;;;5058182;28;20207;-81
2023/01/19 04:59:56;;;;;;;0.10;0.10;;;-0.20;99.90;;;;;;5060599;28;20308;-81
2023/01/19 05:02:22;;;;;;;0.10;0.10;;;0.00;99.90;;;;;;5060104;28;20196;-79
2023/01/19 05:04:48;;;;;;;0.10;0.10;;;-0.10;99.90;;;;;;5058994;28;20701;-80
2023/01/19 05:07:13;;;;;;;0.10;0.10;;;-0.10;99.90;;;;;;5058085;28;20228;-81
2023/01/19 05:09:39;;;;;;;0.10;0.10;;;-0.20;99.90;;;;;;5059915;28;20292;-80
2023/01/19 05:12:05;;;;;;;0.10;0.10;;;0.00;99.90;;;;;;5062080;28;20181;-81
2023/01/19 05:14:30;;;;;;;0.10;0.10;;;0.00;99.90;;;;;;5060717;28;20300;-80
2023/01/19 05:16:56;;;;;;;0.10;0.10;;;0.20;99.90;;;;;;5059578;28;20225;-80
2023/01/19 05:19:22;;;;;;;0.10;0.10;;;0.40;99.90;;;;;;5060308;28;20245;-80
2023/01/19 05:21:48;;;;;;;0.10;0.10;;;0.40;99.90;;;;;;5056380;28;20273;-80
2023/01/19 05:24:14;;;;;;;0.10;0.10;;;0.30;99.90;;;;;;5059786;28;20185;-82
2023/01/19 05:26:40;;;;;;;0.10;0.10;;;0.40;99.90;;;;;;5060815;28;20579;-80
2023/01/19 05:29:05;;;;;;;0.10;0.10;;;0.20;99.90;;;;;;5058814;28;20204;-82
2023/01/19 05:31:31;;;;;;;0.10;0.10;;;0.20;99.90;;;;;;5058376;28;20185;-81
2023/01/19 05:33:56;;;;;;;0.03;0.03;;;0.30;99.90;;;;;;5059482;28;20184;-80
2023/01/19 05:36:22;;;;;;;0.10;0.10;;;0.20;99.90;;;;;;5061128;28;20185;-82
2023/01/19 05:38:48;;;;;;;0.10;0.10;;;0.30;99.90;;;;;;5057837;28;20185;-83
2023/01/19 05:41:14;;;;;;;0.10;0.10;;;0.30;99.90;;;;;;5060711;28;20193;-85
2023/01/19 05:43:39;;;;;;;0.10;0.10;;;0.30;99.90;;;;;;5061969;28;20654;-82
2023/01/19 05:46:05;;;;;;;0.10;0.10;;;0.20;99.90;;;;;;5060009;28;20188;-83
2023/01/19 05:48:31;;;;;;;0.10;0.10;;;0.00;99.90;;;;;;5062588;28;20300;-82
2023/01/19 05:50:57;;;;;;;0.10;0.10;;;0.00;99.90;;;;;;5062347;28;20222;-82
2023/01/19 05:53:23;;;;;;;0.10;0.10;;;-0.20;99.90;;;;;;5059236;28;20831;-81
2023/01/19 05:55:49;;;;;;;0.10;0.10;;;-0.20;99.90;;;;;;5059258;28;20216;-81
2023/01/19 05:58:14;;;;;;;0.00;0.00;;;-0.10;99.90;;;;;;5055161;28;20423;-82
2023/01/19 06:00:40;;;;;;;0.00;0.00;;;0.10;99.90;;;;;;5061066;28;20192;-80
2023/01/19 06:03:05;;;;;;;0.10;0.10;;;0.30;99.90;;;;;;5057143;28;20186;-81
2023/01/19 06:05:31;;;;;;;0.10;0.10;;;0.30;99.90;;;;;;5056772;28;20184;-81
2023/01/19 06:07:56;;;;;;;0.10;0.10;;;0.40;99.90;;;;;;5056038;28;20276;-80
2023/01/19 06:10:22;;;;;;;0.10;0.10;;;0.30;99.90;;;;;;5059798;28;20206;-81
2023/01/19 06:12:48;;;;;;;0.10;0.10;;;0.40;99.90;;;;;;5057664;28;20231;-81
2023/01/19 06:15:14;;;;;;;0.10;0.10;;;0.60;99.90;;;;;;5057752;28;20197;-81
2023/01/19 06:17:40;;;;;;;0.10;0.10;;;0.70;99.90;;;;;;5059353;28;20236;-81
2023/01/19 06:20:06;;;;;;;0.10;0.10;;;0.80;99.90;;;;;;5061300;28;20187;-81
2023/01/19 06:22:31;;;;;;;0.10;0.10;;;0.70;99.90;;;;;;5061623;28;20197;-82
2023/01/19 06:24:57;;;;;;;0.10;0.10;;;0.50;99.90;;;;;;5061457;28;20259;-80
2023/01/19 06:27:22;;;;;;;0.10;0.10;;;0.60;99.90;;;;;;5058254;28;20213;-81
2023/01/19 06:29:48;;;;;;;0.00;0.00;;;0.80;99.90;;;;;;5059282;28;20618;-81
2023/01/19 06:32:13;;;;;;;0.07;0.07;;;0.90;99.90;;;;;;5060720;28;20194;-80
2023/01/19 06:34:42;;;;;;;0.10;0.10;;;0.70;99.90;;;;;;5060507;28;20224;-80
2023/01/19 06:37:10;;;;;;;0.00;0.00;;;0.70;99.90;;;;;;5058328;28;20376;-79
2023/01/19 06:39:39;;;;;;;0.10;0.10;;;0.90;99.90;;;;;;5060648;28;20190;-80
2023/01/19 06:42:06;;;;;;;0.00;0.00;;;1.00;99.90;;;;;;5058284;28;20210;-81
2023/01/19 06:44:32;;;;;;;0.10;0.10;;;1.10;99.90;;;;;;5058189;28;20283;-82
2023/01/19 06:46:57;;;;;;;0.00;0.00;;;1.10;99.90;;;;;;5058099;28;20480;-80
2023/01/19 06:49:23;;;;;;;0.10;0.10;;;1.10;99.90;;;;;;5060872;28;20206;-82
2023/01/19 06:51:49;;;;;;;0.10;0.10;;;1.20;99.90;;;;;;5054303;28;20212;-82
2023/01/19 06:54:15;;;;;;;0.10;0.10;;;1.20;99.90;;;;;;5059595;28;20366;-81
2023/01/19 06:56:40;;;;;;;0.00;0.00;;;1.30;99.90;;;;;;5059932;28;20711;-80
2023/01/19 06:59:07;;;;;;;0.10;0.10;;;1.40;99.90;;;;;;5064685;28;20198;-80
2023/01/19 07:01:32;;;;;;;0.10;0.10;;;1.40;99.90;;;;;;5062737;28;20222;-81
2023/01/19 07:04:00;;;;;;;0.03;0.03;;;1.30;99.90;;;;;;5064661;28;20224;-82
2023/01/19 07:06:26;;;;;;;0.10;0.10;;;1.20;99.90;;;;;;5063133;28;20915;-82
2023/01/19 07:08:53;;;;;;;0.10;0.10;;;1.10;99.90;;;;;;5061486;28;20211;-80
2023/01/19 07:11:19;;;;;;;0.10;0.10;;;1.00;99.90;;;;;;5059776;28;20656;-81
2023/01/19 07:13:50;;;;;;;0.10;0.10;;;1.00;99.90;;;;;;5047966;28;20295;-81
2023/01/19 07:16:16;;;;;;;0.00;0.00;;;1.10;99.90;;;;;;5058863;28;20546;-82
2023/01/19 07:18:41;;;;;;;0.00;0.00;;;1.10;99.90;;;;;;5059615;28;20183;-82
2023/01/19 07:21:08;;;;;;;0.10;0.10;;;1.10;99.90;;;;;;5055022;28;20173;-82
2023/01/19 07:23:33;;;;;;;0.10;0.10;;;0.80;99.90;;;;;;5060104;28;20375;-81
2023/01/19 07:26:00;;;;;;;0.07;0.07;;;0.60;99.90;;;;;;5059723;28;20651;-82
2023/01/19 07:28:29;;;;;;;0.10;0.10;;;0.60;99.90;;;;;;5061173;28;20307;-81
2023/01/19 07:30:55;;;;;;;0.10;0.10;;;0.40;99.90;;;;;;5057009;28;20719;-82
2023/01/19 07:33:22;;;;;;;0.00;0.00;;;0.40;99.90;;;;;;5056703;28;20179;-81
2023/01/19 07:35:48;;;;;;;0.10;0.10;;;0.40;99.90;;;;;;5067889;28;20194;-81
2023/01/19 07:38:15;;;;;;;0.10;0.10;;;0.40;99.90;;;;;;5061476;28;20200;-81
2023/01/19 07:40:40;;;;;;;0.10;0.10;;;0.30;99.90;;;;;;5060451;28;20173;-81
2023/01/19 07:43:06;;;;;;;0.10;0.10;;;0.30;99.90;;;;;;5058006;28;20181;-79
2023/01/19 07:45:32;;;;;;;0.10;0.10;;;0.30;99.90;;;;;;5060613;28;21063;-81
2023/01/19 07:47:57;;;;;;;0.10;0.10;;;0.20;99.90;;;;;;5057763;28;20219;-81
2023/01/19 07:50:28;;;;;;;0.00;0.00;;;0.30;99.90;;;;;;5061419;28;20255;-81
2023/01/19 07:52:54;;;;;;;0.10;0.10;;;0.30;99.90;;;;;;5063657;28;20443;-81
2023/01/19 07:55:20;;;;;;;0.10;0.10;;;0.30;99.90;;;;;;5061132;28;20277;-80
2023/01/19 07:57:52;;;;;;;0.00;0.00;;;0.30;99.90;;;;;;5061823;28;20216;-82
2023/01/19 08:00:20;;;;;;;0.10;0.10;;;0.40;99.90;;;;;;5065051;28;20897;-80
2023/01/19 08:02:50;;;;;;;0.10;0.10;;;0.30;99.90;;;;;;5069168;28;20189;-82
2023/01/19 08:05:17;;;;;;;0.10;0.10;;;0.30;99.90;;;;;;5062118;28;20223;-82
2023/01/19 08:07:44;;;;;;;0.00;0.00;;;0.40;99.90;;;;;;5061892;28;20300;-81
2023/01/19 08:10:11;;;;;;;0.10;0.10;;;0.60;99.90;;;;;;5062370;28;20932;-80
2023/01/19 08:12:37;;;;;;;0.10;0.10;;;0.70;99.90;;;;;;5064149;28;20235;-81
2023/01/19 08:15:02;;;;;;;0.10;0.10;;;0.90;99.90;;;;;;5062817;28;20185;-79
2023/01/19 08:17:28;;;;;;;0.10;0.10;;;0.80;99.90;;;;;;5060261;28;20220;-80
2023/01/19 08:19:53;;;;;;;0.10;0.10;;;1.00;99.90;;;;;;5059608;28;20193;-82
2023/01/19 08:22:19;;;;;;;0.10;0.10;;;0.90;99.90;;;;;;5059928;28;20275;-81
2023/01/19 08:24:44;;;;;;;0.10;0.10;;;1.10;99.90;;;;;;5062116;28;20192;-82
2023/01/19 08:27:10;;;;;;;0.10;0.10;;;1.30;99.90;;;;;;5058743;28;20210;-81
2023/01/19 08:29:36;;;;;;;0.10;0.10;;;1.40;99.90;;;;;;5060148;28;20220;-81
2023/01/19 08:32:01;;;;;;;0.10;0.10;;;1.80;99.90;;;;;;5058857;28;20273;-81
2023/01/19 08:34:29;;;;;;;1.40;1.30;;;2.00;99.90;;;;;;5059875;28;20520;-82
2023/01/19 08:36:56;;;;;;;0.10;0.10;;;2.00;99.90;;;;;;5056381;28;20368;-81
2023/01/19 08:39:22;;;;;;;0.10;0.10;;;2.40;99.90;;;;;;5058903;28;20240;-82
2023/01/19 08:41:51;;;;;;;0.00;0.00;;;2.80;99.90;;;;;;5057588;28;20306;-82
2023/01/19 08:44:17;;;;;;;0.10;0.10;;;3.10;99.90;;;;;;5057869;28;20651;-82
2023/01/19 08:46:43;;;;;;;0.10;0.10;;;3.20;99.90;;;;;;5058638;28;20330;-82
2023/01/19 08:49:08;;;;;;;0.10;0.10;;;3.60;99.90;;;;;;5059227;28;20245;-81
2023/01/19 08:51:34;;;;;;;0.10;0.10;;;3.80;99.90;;;;;;5059286;28;20199;-80
2023/01/19 08:54:00;;;;;;;0.10;0.10;;;4.00;99.90;;;;;;5057892;28;20780;-81
2023/01/19 08:56:26;;;;;;;0.00;0.00;;;4.30;99.90;;;;;;5060136;28;20183;-81
2023/01/19 08:58:51;;;;;;;0.10;0.10;;;4.40;99.90;;;;;;5057465;28;21018;-81
2023/01/19 09:01:19;;;;;;;0.00;0.00;;;4.60;99.90;;;;;;5059050;28;20199;-82
2023/01/19 09:03:45;;;;;;;0.10;0.10;;;4.70;99.90;;;;;;5062700;28;20195;-81
2023/01/19 09:06:13;;;;;;;0.10;0.10;;;5.00;99.90;;;;;;5060737;28;20275;-82
2023/01/19 09:08:39;;;;;;;0.10;0.10;;;4.90;99.90;;;;;;5060058;28;20964;-81
2023/01/19 09:11:10;;;;;;;0.03;0.03;;;4.70;99.90;;;;;;5058136;28;20206;-80
2023/01/19 09:13:35;;;;;;;0.10;0.10;;;4.70;99.90;;;;;;5058507;28;20181;-81
2023/01/19 09:16:02;;;;;;;0.10;0.10;;;4.60;99.90;;;;;;5061372;28;20188;-81
2023/01/19 09:18:28;;;;;;;0.10;0.10;;;4.50;99.90;;;;;;5059800;28;20224;-82
2023/01/19 09:20:56;;;;;;;0.10;0.10;;;4.40;99.90;;;;;;5059098;28;20256;-81
2023/01/19 09:23:22;;;;;;;0.00;0.00;;;4.40;99.90;;;;;;5061048;28;20200;-80
2023/01/19 09:25:48;;;;;;;0.10;0.10;;;4.40;99.90;;;;;;5060677;28;20189;-81
2023/01/19 09:28:16;;;;;;;0.10;0.10;;;4.40;99.90;;;;;;5061669;28;20273;-79
2023/01/19 09:30:43;;;;;;;0.10;0.10;;;4.40;99.90;;;;;;5057666;28;20187;-80
2023/01/19 09:33:10;;;;;;;0.10;0.10;;;4.50;99.90;;;;;;5060565;28;20254;-81
2023/01/19 09:35:38;;;;;;;0.10;0.10;;;4.60;99.90;;;;;;5059214;28;20555;-80
2023/01/19 09:38:06;;;;;;;0.10;0.10;;;4.70;99.90;;;;;;5058213;28;20212;-81
2023/01/19 09:40:32;;;;;;;0.00;0.00;;;4.90;99.90;;;;;;5057857;28;20224;-80
2023/01/19 09:43:35;;;;;;;0.10;0.10;;;5.00;99.90;;;;;;5044902;28;20260;-80
2023/01/19 09:46:21;;;;;;;7.00;6.60;;;5.10;99.90;;;;;;5057656;28;20183;-81
2023/01/19 09:48:49;;;;;;;0.10;0.10;;;5.10;99.90;;;;;;5058545;28;20216;-81
2023/01/19 09:51:27;;;;;;;0.10;0.10;;;5.00;99.90;;;;;;5055636;28;20177;-81
2023/01/19 09:54:17;;;;;;;0.00;0.00;;;5.10;99.90;;;;;;5059066;28;20187;-80
2023/01/19 09:56:44;;;;;;;0.00;0.00;;;4.90;99.90;;;;;;5058369;28;20197;-82
2023/01/19 09:59:31;;;;;;;0.10;0.10;;;4.70;99.90;;;;;;5059399;28;20206;-81
2023/01/19 10:02:19;;;;;;;0.10;0.10;;;4.50;99.90;;;;;;5057343;28;20768;-80
2023/01/19 10:05:15;;;;;;;0.10;0.10;;;4.50;99.90;;;;;;5058584;28;20193;-81
2023/01/19 10:08:24;;;;;;;0.10;0.10;;;4.20;99.90;;;;;;5058287;28;20238;-81
2023/01/19 10:10:55;;;;;;;0.10;0.10;;;4.10;99.90;;;;;;5022827;28;20195;-80
2023/01/19 10:13:35;;;;;;;0.00;0.00;;;3.90;99.90;;;;;;5032604;28;20195;-82
2023/01/19 10:16:09;;;;;;;0.03;0.03;;;3.80;99.90;;;;;;5040412;28;20626;-82
2023/01/19 10:18:50;;;;;;;0.10;0.10;;;3.90;99.90;;;;;;5057301;28;20635;-81
2023/01/19 10:21:39;;;;;;;0.10;0.10;;;3.80;99.90;;;;;;5057846;28;20685;-80
2023/01/19 10:24:26;;;;;;;0.03;0.03;;;3.90;99.90;;;;;;5059983;28;20264;-80
2023/01/19 10:26:56;;;;;;;0.10;0.10;;;3.90;99.90;;;;;;5057958;28;20773;-79
2023/01/19 10:29:36;;;;;;;0.57;0.57;;;3.90;99.90;;;;;;5057572;28;20293;-81
2023/01/19 10:32:20;;;;;;;0.10;0.10;;;3.70;99.90;;;;;;5054694;28;20176;-81
2023/01/19 10:34:46;;;;;;;0.10;0.10;;;3.60;99.90;;;;;;5062044;28;20184;-81
2023/01/19 10:37:29;;;;;;;0.10;0.10;;;3.50;99.90;;;;;;5062965;28;20345;-82
2023/01/19 10:40:14;;;;;;;0.10;0.10;;;3.50;99.90;;;;;;5062435;28;20566;-82
2023/01/19 10:42:41;;;;;;;0.10;0.10;;;3.40;99.90;;;;;;5060303;28;20633;-81
2023/01/19 10:45:17;;;;;;;0.10;0.10;;;3.40;99.90;;;;;;5068878;28;20187;-80
2023/01/19 10:47:45;;;;;;;0.10;0.10;;;3.40;99.90;;;;;;5064018;28;20213;-82
2023/01/19 10:50:23;;;;;;;0.10;0.10;;;3.40;99.90;;;;;;5071058;28;20206;-81
2023/01/19 10:52:50;;;;;;;0.10;0.10;;;3.40;99.90;;;;;;5071036;28;20550;-82
2023/01/19 10:55:25;;;;;;;0.10;0.10;;;3.40;99.90;;;;;;5061594;28;20189;-80
2023/01/19 10:57:52;;;;;;;0.00;0.00;;;3.50;99.90;;;;;;5057544;28;20255;-80
2023/01/19 11:00:30;;;;;;;0.10;0.10;;;3.60;99.90;;;;;;5061765;28;20196;-80
2023/01/19 11:02:55;;;;;;;0.10;0.10;;;3.50;99.90;;;;;;5062238;28;20245;-80
2023/01/19 11:05:24;;;;;;;0.00;0.00;;;3.50;99.90;;;;;;5061934;28;20190;-80
2023/01/19 11:07:50;;;;;;;0.03;0.03;;;3.60;99.90;;;;;;5060311;28;20212;-82
2023/01/19 11:10:20;;;;;;;0.10;0.10;;;3.60;99.90;;;;;;5059393;28;20530;-81
2023/01/19 11:13:00;;;;;;;0.10;0.10;;;3.70;99.90;;;;;;5061261;28;20550;-81
2023/01/19 11:15:33;;;;;;;3.50;3.30;;;3.70;99.90;;;;;;5061622;28;20199;-81
2023/01/19 11:18:01;;;;;;;0.10;0.10;;;3.90;99.90;;;;;;5060879;28;20199;-80
2023/01/19 11:20:50;;;;;;;0.10;0.10;;;3.90;99.90;;;;;;5062403;28;20675;-82
2023/01/19 11:23:27;;;;;;;0.10;0.10;;;3.90;99.90;;;;;;5062369;28;20551;-81
2023/01/19 11:25:55;;;;;;;0.10;0.10;;;3.80;99.90;;;;;;5062420;28;20719;-80
2023/01/19 11:28:33;;;;;;;0.03;0.03;;;3.80;99.90;;;;;;5055067;28;20205;-81
2023/01/19 11:31:10;;;;;;;1.90;1.90;;;3.80;99.90;;;;;;5063119;28;20549;-80
2023/01/19 11:33:41;;;;;;;0.10;0.10;;;3.70;99.90;;;;;;5062640;28;20186;-80
2023/01/19 11:36:20;;;;;;;0.00;0.00;;;3.70;99.90;;;;;;5060456;28;20247;-81
2023/01/19 11:39:19;;;;;;;0.10;0.10;;;3.70;99.90;;;;;;5061078;28;20183;-81
2023/01/19 11:41:48;;;;;;;0.10;0.10;;;3.80;99.90;;;;;;5059523;28;20230;-81
2023/01/19 11:44:24;;;;;;;0.10;0.10;;;3.80;99.90;;;;;;5061601;28;20575;-81
2023/01/19 11:46:55;;;;;;;0.10;0.10;;;3.80;99.90;;;;;;5059921;28;20211;-81
2023/01/19 11:49:29;;;;;;;0.03;0.03;;;3.80;99.90;;;;;;5063865;28;20231;-82
2023/01/19 11:52:15;;;;;;;0.10;0.10;;;3.90;99.90;;;;;;5064297;28;20171;-80
2023/01/19 11:54:58;;;;;;;0.10;0.10;;;3.90;99.90;;;;;;5062007;28;20650;-82
2023/01/19 11:57:24;;;;;;;0.00;0.00;;;4.00;99.90;;;;;;5063198;28;20747;-83
2023/01/19 11:59:50;;;;;;;0.10;0.10;;;4.10;99.90;;;;;;5064488;28;20196;-80
2023/01/19 12:02:41;;;;;;;0.10;0.10;;;4.10;99.90;;;;;;5059335;28;20716;-81
2023/01/19 12:05:14;;;;;;;0.10;0.10;;;4.30;99.90;;;;;;5058162;28;20229;-80
2023/01/19 12:07:44;;;;;;;0.10;0.10;;;4.30;99.90;;;;;;5057203;28;20199;-81
2023/01/19 12:10:18;;;;;;;0.10;0.10;;;4.20;99.90;;;;;;5060662;28;20257;-82
2023/01/19 12:12:45;;;;;;;0.10;0.10;;;4.30;99.90;;;;;;5062319;28;20188;-80
2023/01/19 12:15:20;;;;;;;0.10;0.10;;;4.30;99.90;;;;;;5058715;28;20183;-80
2023/01/19 12:17:48;;;;;;;0.00;0.00;;;4.30;99.90;;;;;;5057162;28;20230;-81
2023/01/19 12:20:43;;;;;;;0.10;0.10;;;4.30;99.90;;;;;;5056066;28;20246;-82
2023/01/19 12:23:36;;;;;;;0.10;0.10;;;4.40;99.90;;;;;;5056003;28;21499;-83
2023/01/19 12:26:17;;;;;;;0.10;0.10;;;4.40;99.90;;;;;;5058370;28;20285;-82
2023/01/19 12:28:48;;;;;;;0.10;0.10;;;4.40;99.90;;;;;;5056085;28;20252;-82
2023/01/19 12:31:21;;;;;;;0.10;0.10;;;4.30;99.90;;;;;;5071155;28;20590;-80
2023/01/19 12:33:46;;;;;;;0.10;0.10;;;4.20;99.90;;;;;;5059712;28;20234;-80
2023/01/19 12:36:34;;;;;;;0.00;0.00;;;4.20;99.90;;;;;;5060302;28;20185;-84
2023/01/19 12:39:19;;;;;;;0.10;0.10;;;4.40;99.90;;;;;;5059374;28;20188;-82
2023/01/19 12:41:46;;;;;;;0.10;0.10;;;4.30;99.90;;;;;;5060139;28;20637;-81
2023/01/19 12:44:15;;;;;;;0.10;0.10;;;4.30;99.90;;;;;;5061271;28;20731;-81
2023/01/19 12:46:48;;;;;;;0.10;0.10;;;4.40;99.90;;;;;;5058629;28;20213;-81
2023/01/19 12:49:36;;;;;;;0.10;0.10;;;4.50;99.90;;;;;;5058531;28;20293;-82
2023/01/19 12:52:32;;;;;;;0.10;0.10;;;4.40;99.90;;;;;;5059290;28;20184;-82
2023/01/19 12:55:13;;;;;;;0.10;0.10;;;4.60;99.90;;;;;;5067840;28;20665;-81
2023/01/19 12:57:47;;;;;;;0.10;0.10;;;4.70;99.90;;;;;;5053175;28;20200;-83
2023/01/19 13:00:21;;;;;;;0.10;0.10;;;4.60;99.90;;;;;;5058489;28;20193;-80
2023/01/19 13:02:56;;;;;;;0.10;0.10;;;4.60;99.90;;;;;;5060609;28;20271;-81
2023/01/19 13:05:52;;;;;;;0.10;0.10;;;4.70;99.90;;;;;;5058512;28;20195;-82
2023/01/19 13:08:23;;;;;;;0.10;0.10;;;4.70;99.90;;;;;;5058355;28;20205;-80
2023/01/19 13:11:11;;;;;;;0.10;0.10;;;4.70;99.90;;;;;;5056824;28;20188;-82
2023/01/19 13:14:03;;;;;;;0.10;0.10;;;4.60;99.90;;;;;;5055555;28;20180;-82
2023/01/19 13:16:29;;;;;;;0.10;0.10;;;4.60;99.90;;;;;;5041625;28;21228;-81
2023/01/19 13:19:13;;;;;;;0.10;0.10;;;4.60;99.90;;;;;;5057650;28;20187;-81
2023/01/19 13:21:44;;;;;;;0.10;0.10;;;4.50;99.90;;;;;;5054793;28;20232;-81